sensor_id;sensor_type;location;lat;lon;timestamp;temperature;humidity
26909;DHT22;14477;51.038;4.588;2023-06-22T00:00:56;24.80;68.20
26909;DHT22;14477;51.038;4.588;2023-06-22T00:03:24;24.80;68.20
26909;DHT22;14477;51.038;4.588;2023-06-22T00:05:50;24.70;68.40
26909;DHT22;14477;51.038;4.588;2023-06-22T00:08:17;24.60;68.40
26909;DHT22;14477;51.038;4.588;2023-06-22T00:10:43;24.60;68.60
26909;DHT22;14477;51.038;4.588;2023-06-22T00:13:10;24.50;68.70
26909;DHT22;14477;51.038;4.588;2023-06-22T00:15:37;24.50;68.90
26909;DHT22;14477;51.038;4.588;2023-06-22T00:18:04;24.40;68.80
26909;DHT22;14477;51.038;4.588;2023-06-22T00:20:30;24.30;68.90
26909;DHT22;14477;51.038;4.588;2023-06-22T00:22:57;24.30;69.10
26909;DHT22;14477;51.038;4.588;2023-06-22T00:25:23;24.20;70.00
26909;DHT22;14477;51.038;4.588;2023-06-22T00:27:49;24.20;69.40
26909;DHT22;14477;51.038;4.588;2023-06-22T00:30:19;24.10;69.50
26909;DHT22;14477;51.038;4.588;2023-06-22T00:32:45;24.10;70.00
26909;DHT22;14477;51.038;4.588;2023-06-22T00:35:12;24.10;69.80
26909;DHT22;14477;51.038;4.588;2023-06-22T00:37:38;24.00;69.90
26909;DHT22;14477;51.038;4.588;2023-06-22T00:40:06;24.00;70.00
26909;DHT22;14477;51.038;4.588;2023-06-22T00:42:34;23.90;70.10
26909;DHT22;14477;51.038;4.588;2023-06-22T00:45:00;23.90;70.30
26909;DHT22;14477;51.038;4.588;2023-06-22T00:47:26;23.80;70.30
26909;DHT22;14477;51.038;4.588;2023-06-22T00:49:52;23.80;70.40
26909;DHT22;14477;51.038;4.588;2023-06-22T00:52:22;23.70;70.60
26909;DHT22;14477;51.038;4.588;2023-06-22T00:54:53;23.80;71.00
26909;DHT22;14477;51.038;4.588;2023-06-22T00:57:19;23.70;70.90
26909;DHT22;14477;51.038;4.588;2023-06-22T00:59:45;23.70;70.90
26909;DHT22;14477;51.038;4.588;2023-06-22T01:02:13;23.70;71.00
26909;DHT22;14477;51.038;4.588;2023-06-22T01:04:40;23.70;71.10
26909;DHT22;14477;51.038;4.588;2023-06-22T01:07:37;23.70;71.30
26909;DHT22;14477;51.038;4.588;2023-06-22T01:12:56;23.70;71.10
26909;DHT22;14477;51.038;4.588;2023-06-22T01:15:45;23.70;71.10
26909;DHT22;14477;51.038;4.588;2023-06-22T01:18:12;23.70;71.10
26909;DHT22;14477;51.038;4.588;2023-06-22T01:20:39;23.80;71.20
26909;DHT22;14477;51.038;4.588;2023-06-22T01:23:10;23.70;71.10
26909;DHT22;14477;51.038;4.588;2023-06-22T01:26:17;23.70;71.30
26909;DHT22;14477;51.038;4.588;2023-06-22T01:28:48;23.80;71.30
26909;DHT22;14477;51.038;4.588;2023-06-22T01:31:18;23.80;71.30
26909;DHT22;14477;51.038;4.588;2023-06-22T01:34:07;23.70;71.00
26909;DHT22;14477;51.038;4.588;2023-06-22T01:36:33;23.70;70.90
26909;DHT22;14477;51.038;4.588;2023-06-22T01:39:00;23.70;70.90
26909;DHT22;14477;51.038;4.588;2023-06-22T01:41:29;23.70;71.10
26909;DHT22;14477;51.038;4.588;2023-06-22T01:43:56;23.60;70.90
26909;DHT22;14477;51.038;4.588;2023-06-22T01:46:22;23.60;70.90
26909;DHT22;14477;51.038;4.588;2023-06-22T01:48:49;23.60;71.20
26909;DHT22;14477;51.038;4.588;2023-06-22T01:51:16;23.50;71.30
26909;DHT22;14477;51.038;4.588;2023-06-22T01:53:42;23.60;71.40
26909;DHT22;14477;51.038;4.588;2023-06-22T01:56:08;23.50;71.40
26909;DHT22;14477;51.038;4.588;2023-06-22T01:58:37;23.50;71.50
26909;DHT22;14477;51.038;4.588;2023-06-22T02:01:14;23.40;71.50
26909;DHT22;14477;51.038;4.588;2023-06-22T02:03:53;23.40;71.50
26909;DHT22;14477;51.038;4.588;2023-06-22T02:06:30;23.40;71.50
26909;DHT22;14477;51.038;4.588;2023-06-22T02:09:05;23.40;71.40
26909;DHT22;14477;51.038;4.588;2023-06-22T02:11:33;23.40;71.30
26909;DHT22;14477;51.038;4.588;2023-06-22T02:14:00;23.30;71.40
26909;DHT22;14477;51.038;4.588;2023-06-22T02:16:26;23.30;71.50
26909;DHT22;14477;51.038;4.588;2023-06-22T02:18:55;23.20;71.50
26909;DHT22;14477;51.038;4.588;2023-06-22T02:21:28;23.20;71.50
26909;DHT22;14477;51.038;4.588;2023-06-22T02:23:54;23.20;71.60
26909;DHT22;14477;51.038;4.588;2023-06-22T02:26:20;23.20;71.70
26909;DHT22;14477;51.038;4.588;2023-06-22T02:28:46;23.10;71.80
26909;DHT22;14477;51.038;4.588;2023-06-22T02:31:12;23.10;72.20
26909;DHT22;14477;51.038;4.588;2023-06-22T02:33:37;23.10;72.20
26909;DHT22;14477;51.038;4.588;2023-06-22T02:36:03;23.00;72.10
26909;DHT22;14477;51.038;4.588;2023-06-22T02:38:31;23.00;72.00
26909;DHT22;14477;51.038;4.588;2023-06-22T02:41:00;23.00;71.80
26909;DHT22;14477;51.038;4.588;2023-06-22T02:43:26;22.90;71.80
26909;DHT22;14477;51.038;4.588;2023-06-22T02:45:51;22.90;71.80
26909;DHT22;14477;51.038;4.588;2023-06-22T02:48:17;22.90;71.80
26909;DHT22;14477;51.038;4.588;2023-06-22T02:50:43;22.80;71.80
26909;DHT22;14477;51.038;4.588;2023-06-22T02:53:08;22.70;71.90
26909;DHT22;14477;51.038;4.588;2023-06-22T02:55:34;22.70;72.10
26909;DHT22;14477;51.038;4.588;2023-06-22T02:58:00;22.60;72.20
26909;DHT22;14477;51.038;4.588;2023-06-22T03:00:30;22.60;72.20
26909;DHT22;14477;51.038;4.588;2023-06-22T03:02:56;22.60;72.30
26909;DHT22;14477;51.038;4.588;2023-06-22T03:05:23;22.50;72.20
26909;DHT22;14477;51.038;4.588;2023-06-22T03:07:49;22.50;72.30
26909;DHT22;14477;51.038;4.588;2023-06-22T03:10:15;22.50;72.30
26909;DHT22;14477;51.038;4.588;2023-06-22T03:12:42;22.40;72.20
26909;DHT22;14477;51.038;4.588;2023-06-22T03:15:10;22.40;72.40
26909;DHT22;14477;51.038;4.588;2023-06-22T03:17:37;22.30;72.40
26909;DHT22;14477;51.038;4.588;2023-06-22T03:20:07;22.30;72.60
26909;DHT22;14477;51.038;4.588;2023-06-22T03:22:41;22.30;72.70
26909;DHT22;14477;51.038;4.588;2023-06-22T03:25:08;22.20;72.80
26909;DHT22;14477;51.038;4.588;2023-06-22T03:27:36;22.20;72.70
26909;DHT22;14477;51.038;4.588;2023-06-22T03:30:03;22.20;72.90
26909;DHT22;14477;51.038;4.588;2023-06-22T03:32:29;22.20;73.00
26909;DHT22;14477;51.038;4.588;2023-06-22T03:34:54;22.10;73.00
26909;DHT22;14477;51.038;4.588;2023-06-22T03:37:25;22.10;73.00
26909;DHT22;14477;51.038;4.588;2023-06-22T03:39:51;22.00;73.10
26909;DHT22;14477;51.038;4.588;2023-06-22T03:42:17;22.00;73.30
26909;DHT22;14477;51.038;4.588;2023-06-22T03:44:43;22.00;73.50
26909;DHT22;14477;51.038;4.588;2023-06-22T03:47:09;22.00;73.70
26909;DHT22;14477;51.038;4.588;2023-06-22T03:49:35;22.00;73.80
26909;DHT22;14477;51.038;4.588;2023-06-22T03:52:02;22.00;73.90
26909;DHT22;14477;51.038;4.588;2023-06-22T03:54:29;22.00;74.10
26909;DHT22;14477;51.038;4.588;2023-06-22T03:56:58;22.00;74.20
26909;DHT22;14477;51.038;4.588;2023-06-22T03:59:24;22.00;74.30
26909;DHT22;14477;51.038;4.588;2023-06-22T04:01:50;22.00;74.30
26909;DHT22;14477;51.038;4.588;2023-06-22T04:04:18;22.00;74.40
26909;DHT22;14477;51.038;4.588;2023-06-22T04:06:44;22.00;74.60
26909;DHT22;14477;51.038;4.588;2023-06-22T04:09:10;22.00;74.70
26909;DHT22;14477;51.038;4.588;2023-06-22T04:11:35;22.00;74.80
26909;DHT22;14477;51.038;4.588;2023-06-22T04:14:01;22.10;74.90
26909;DHT22;14477;51.038;4.588;2023-06-22T04:16:27;22.10;74.90
26909;DHT22;14477;51.038;4.588;2023-06-22T04:18:53;22.10;75.00
26909;DHT22;14477;51.038;4.588;2023-06-22T04:21:18;22.10;75.10
26909;DHT22;14477;51.038;4.588;2023-06-22T04:23:45;22.10;75.30
26909;DHT22;14477;51.038;4.588;2023-06-22T04:26:12;22.10;75.40
26909;DHT22;14477;51.038;4.588;2023-06-22T04:28:39;22.20;75.50
26909;DHT22;14477;51.038;4.588;2023-06-22T04:31:05;22.20;75.40
26909;DHT22;14477;51.038;4.588;2023-06-22T04:33:31;22.30;75.60
26909;DHT22;14477;51.038;4.588;2023-06-22T04:35:58;22.30;75.50
26909;DHT22;14477;51.038;4.588;2023-06-22T04:38:24;22.30;75.50
26909;DHT22;14477;51.038;4.588;2023-06-22T04:40:50;22.30;75.50
26909;DHT22;14477;51.038;4.588;2023-06-22T04:43:16;22.30;75.60
26909;DHT22;14477;51.038;4.588;2023-06-22T04:45:42;22.30;75.70
26909;DHT22;14477;51.038;4.588;2023-06-22T04:48:08;22.30;75.80
26909;DHT22;14477;51.038;4.588;2023-06-22T04:50:42;22.30;76.00
26909;DHT22;14477;51.038;4.588;2023-06-22T04:53:07;22.30;76.10
26909;DHT22;14477;51.038;4.588;2023-06-22T04:55:35;22.30;76.10
26909;DHT22;14477;51.038;4.588;2023-06-22T04:58:03;22.40;76.10
26909;DHT22;14477;51.038;4.588;2023-06-22T05:00:30;22.40;76.20
26909;DHT22;14477;51.038;4.588;2023-06-22T05:02:57;22.50;76.40
26909;DHT22;14477;51.038;4.588;2023-06-22T05:05:24;22.50;76.40
26909;DHT22;14477;51.038;4.588;2023-06-22T05:07:51;22.60;76.70
26909;DHT22;14477;51.038;4.588;2023-06-22T05:10:19;22.70;76.80
26909;DHT22;14477;51.038;4.588;2023-06-22T05:12:46;22.70;76.80
26909;DHT22;14477;51.038;4.588;2023-06-22T05:15:12;22.80;76.90
26909;DHT22;14477;51.038;4.588;2023-06-22T05:17:38;22.80;77.00
26909;DHT22;14477;51.038;4.588;2023-06-22T05:20:12;22.90;76.90
26909;DHT22;14477;51.038;4.588;2023-06-22T05:22:39;23.00;76.60
26909;DHT22;14477;51.038;4.588;2023-06-22T05:25:07;23.00;76.40
26909;DHT22;14477;51.038;4.588;2023-06-22T05:27:33;23.00;76.40
26909;DHT22;14477;51.038;4.588;2023-06-22T05:29:59;23.00;76.50
26909;DHT22;14477;51.038;4.588;2023-06-22T05:32:25;23.10;76.60
26909;DHT22;14477;51.038;4.588;2023-06-22T05:34:50;23.10;76.60
26909;DHT22;14477;51.038;4.588;2023-06-22T05:37:16;23.20;76.50
26909;DHT22;14477;51.038;4.588;2023-06-22T05:39:42;23.20;76.60
26909;DHT22;14477;51.038;4.588;2023-06-22T05:42:08;23.20;77.40
26909;DHT22;14477;51.038;4.588;2023-06-22T05:44:33;23.30;76.60
26909;DHT22;14477;51.038;4.588;2023-06-22T05:46:59;23.30;76.50
26909;DHT22;14477;51.038;4.588;2023-06-22T05:49:25;23.30;76.40
26909;DHT22;14477;51.038;4.588;2023-06-22T05:51:58;23.40;76.40
26909;DHT22;14477;51.038;4.588;2023-06-22T05:54:25;23.40;76.30
26909;DHT22;14477;51.038;4.588;2023-06-22T05:56:50;23.40;76.30
26909;DHT22;14477;51.038;4.588;2023-06-22T05:59:17;23.40;76.10
26909;DHT22;14477;51.038;4.588;2023-06-22T06:01:43;23.40;76.20
26909;DHT22;14477;51.038;4.588;2023-06-22T06:04:08;23.40;76.30
26909;DHT22;14477;51.038;4.588;2023-06-22T06:06:34;23.40;76.20
26909;DHT22;14477;51.038;4.588;2023-06-22T06:09:04;23.40;76.10
26909;DHT22;14477;51.038;4.588;2023-06-22T06:11:29;23.40;76.20
26909;DHT22;14477;51.038;4.588;2023-06-22T06:13:55;23.40;76.30
26909;DHT22;14477;51.038;4.588;2023-06-22T06:16:22;23.30;76.40
26909;DHT22;14477;51.038;4.588;2023-06-22T06:18:48;23.30;76.60
26909;DHT22;14477;51.038;4.588;2023-06-22T06:21:17;23.30;76.60
26909;DHT22;14477;51.038;4.588;2023-06-22T06:23:42;23.40;76.60
26909;DHT22;14477;51.038;4.588;2023-06-22T06:26:08;23.30;76.40
26909;DHT22;14477;51.038;4.588;2023-06-22T06:28:35;23.30;76.40
26909;DHT22;14477;51.038;4.588;2023-06-22T06:31:01;23.30;76.40
26909;DHT22;14477;51.038;4.588;2023-06-22T06:33:26;23.30;76.50
26909;DHT22;14477;51.038;4.588;2023-06-22T06:35:52;23.30;76.60
26909;DHT22;14477;51.038;4.588;2023-06-22T06:38:18;23.30;77.40
26909;DHT22;14477;51.038;4.588;2023-06-22T06:40:44;23.30;76.80
26909;DHT22;14477;51.038;4.588;2023-06-22T06:43:10;23.30;76.90
26909;DHT22;14477;51.038;4.588;2023-06-22T06:45:36;23.20;77.00
26909;DHT22;14477;51.038;4.588;2023-06-22T06:48:02;23.30;77.20
26909;DHT22;14477;51.038;4.588;2023-06-22T06:50:28;23.30;77.20
26909;DHT22;14477;51.038;4.588;2023-06-22T06:52:54;23.40;77.40
26909;DHT22;14477;51.038;4.588;2023-06-22T06:55:20;23.40;77.90
26909;DHT22;14477;51.038;4.588;2023-06-22T06:57:46;23.40;77.60
26909;DHT22;14477;51.038;4.588;2023-06-22T07:00:14;23.50;77.60
26909;DHT22;14477;51.038;4.588;2023-06-22T07:02:42;23.50;77.50
26909;DHT22;14477;51.038;4.588;2023-06-22T07:05:08;23.50;77.40
26909;DHT22;14477;51.038;4.588;2023-06-22T07:07:35;23.50;77.40
26909;DHT22;14477;51.038;4.588;2023-06-22T07:10:00;23.60;77.30
26909;DHT22;14477;51.038;4.588;2023-06-22T07:12:26;23.60;77.30
26909;DHT22;14477;51.038;4.588;2023-06-22T07:14:53;23.60;77.20
26909;DHT22;14477;51.038;4.588;2023-06-22T07:17:19;23.70;77.60
26909;DHT22;14477;51.038;4.588;2023-06-22T07:19:45;23.70;77.20
26909;DHT22;14477;51.038;4.588;2023-06-22T07:22:11;23.70;77.20
26909;DHT22;14477;51.038;4.588;2023-06-22T07:24:37;23.70;77.20
26909;DHT22;14477;51.038;4.588;2023-06-22T07:27:03;23.70;77.20
26909;DHT22;14477;51.038;4.588;2023-06-22T07:29:29;23.70;77.30
26909;DHT22;14477;51.038;4.588;2023-06-22T07:31:55;23.80;77.40
26909;DHT22;14477;51.038;4.588;2023-06-22T07:34:22;23.80;77.50
26909;DHT22;14477;51.038;4.588;2023-06-22T07:36:48;23.80;77.60
26909;DHT22;14477;51.038;4.588;2023-06-22T07:39:13;23.90;77.60
26909;DHT22;14477;51.038;4.588;2023-06-22T07:41:40;23.90;77.60
26909;DHT22;14477;51.038;4.588;2023-06-22T07:44:06;23.90;77.50
26909;DHT22;14477;51.038;4.588;2023-06-22T07:46:32;24.00;77.50
26909;DHT22;14477;51.038;4.588;2023-06-22T07:48:58;24.00;77.30
26909;DHT22;14477;51.038;4.588;2023-06-22T07:51:25;24.00;77.20
26909;DHT22;14477;51.038;4.588;2023-06-22T07:53:51;24.00;77.00
26909;DHT22;14477;51.038;4.588;2023-06-22T07:56:16;24.10;77.10
26909;DHT22;14477;51.038;4.588;2023-06-22T07:58:45;24.10;77.10
26909;DHT22;14477;51.038;4.588;2023-06-22T08:01:12;24.10;77.00
26909;DHT22;14477;51.038;4.588;2023-06-22T08:03:38;24.00;77.00
26909;DHT22;14477;51.038;4.588;2023-06-22T08:06:05;24.10;77.10
26909;DHT22;14477;51.038;4.588;2023-06-22T08:08:31;24.10;76.80
26909;DHT22;14477;51.038;4.588;2023-06-22T08:10:57;24.10;76.80
26909;DHT22;14477;51.038;4.588;2023-06-22T08:13:23;24.10;77.30
26909;DHT22;14477;51.038;4.588;2023-06-22T08:15:49;24.10;76.80
26909;DHT22;14477;51.038;4.588;2023-06-22T08:18:14;24.10;76.90
26909;DHT22;14477;51.038;4.588;2023-06-22T08:20:42;24.10;77.00
26909;DHT22;14477;51.038;4.588;2023-06-22T08:23:07;24.10;76.80
26909;DHT22;14477;51.038;4.588;2023-06-22T08:25:33;24.10;76.60
26909;DHT22;14477;51.038;4.588;2023-06-22T08:28:00;24.10;76.50
26909;DHT22;14477;51.038;4.588;2023-06-22T08:30:26;24.10;76.40
26909;DHT22;14477;51.038;4.588;2023-06-22T08:32:52;24.10;76.50
26909;DHT22;14477;51.038;4.588;2023-06-22T08:35:19;24.10;76.50
26909;DHT22;14477;51.038;4.588;2023-06-22T08:37:46;24.10;76.40
26909;DHT22;14477;51.038;4.588;2023-06-22T08:40:21;24.10;76.40
26909;DHT22;14477;51.038;4.588;2023-06-22T08:42:48;24.10;76.30
26909;DHT22;14477;51.038;4.588;2023-06-22T08:45:14;24.10;76.20
26909;DHT22;14477;51.038;4.588;2023-06-22T08:47:40;24.10;76.00
26909;DHT22;14477;51.038;4.588;2023-06-22T08:50:10;24.10;75.90
26909;DHT22;14477;51.038;4.588;2023-06-22T08:52:37;24.10;75.80
26909;DHT22;14477;51.038;4.588;2023-06-22T08:55:06;24.10;75.70
26909;DHT22;14477;51.038;4.588;2023-06-22T08:57:32;24.10;75.60
26909;DHT22;14477;51.038;4.588;2023-06-22T08:59:58;24.00;75.70
26909;DHT22;14477;51.038;4.588;2023-06-22T09:02:27;24.00;75.90
26909;DHT22;14477;51.038;4.588;2023-06-22T09:04:57;24.10;75.70
26909;DHT22;14477;51.038;4.588;2023-06-22T09:07:23;24.10;75.80
26909;DHT22;14477;51.038;4.588;2023-06-22T09:09:50;24.10;75.90
26909;DHT22;14477;51.038;4.588;2023-06-22T09:12:17;24.10;75.80
26909;DHT22;14477;51.038;4.588;2023-06-22T09:14:45;24.20;75.80
26909;DHT22;14477;51.038;4.588;2023-06-22T09:17:12;24.10;75.80
26909;DHT22;14477;51.038;4.588;2023-06-22T09:19:38;24.20;76.00
26909;DHT22;14477;51.038;4.588;2023-06-22T09:22:04;24.20;75.90
26909;DHT22;14477;51.038;4.588;2023-06-22T09:24:32;24.20;76.00
26909;DHT22;14477;51.038;4.588;2023-06-22T09:26:58;24.30;75.90
26909;DHT22;14477;51.038;4.588;2023-06-22T09:29:23;24.20;75.70
26909;DHT22;14477;51.038;4.588;2023-06-22T09:31:49;24.20;75.50
26909;DHT22;14477;51.038;4.588;2023-06-22T09:34:16;24.20;75.50
26909;DHT22;14477;51.038;4.588;2023-06-22T09:36:46;24.20;75.30
26909;DHT22;14477;51.038;4.588;2023-06-22T09:39:11;24.30;75.40
26909;DHT22;14477;51.038;4.588;2023-06-22T09:41:37;24.30;75.30
26909;DHT22;14477;51.038;4.588;2023-06-22T09:44:03;24.30;75.30
26909;DHT22;14477;51.038;4.588;2023-06-22T09:46:28;24.30;75.30
26909;DHT22;14477;51.038;4.588;2023-06-22T09:48:54;24.30;75.30
26909;DHT22;14477;51.038;4.588;2023-06-22T09:51:20;24.30;75.30
26909;DHT22;14477;51.038;4.588;2023-06-22T09:53:47;24.30;75.20
26909;DHT22;14477;51.038;4.588;2023-06-22T09:56:13;24.30;75.40
26909;DHT22;14477;51.038;4.588;2023-06-22T09:58:42;24.20;75.50
26909;DHT22;14477;51.038;4.588;2023-06-22T10:01:08;24.20;75.70
26909;DHT22;14477;51.038;4.588;2023-06-22T10:03:35;24.10;76.00
26909;DHT22;14477;51.038;4.588;2023-06-22T10:06:01;24.00;76.30
26909;DHT22;14477;51.038;4.588;2023-06-22T10:08:27;23.90;76.80
26909;DHT22;14477;51.038;4.588;2023-06-22T10:10:53;23.70;77.30
26909;DHT22;14477;51.038;4.588;2023-06-22T10:13:18;23.60;78.00
26909;DHT22;14477;51.038;4.588;2023-06-22T10:15:44;23.50;79.00
26909;DHT22;14477;51.038;4.588;2023-06-22T10:18:17;23.30;80.00
26909;DHT22;14477;51.038;4.588;2023-06-22T10:20:43;23.20;81.40
26909;DHT22;14477;51.038;4.588;2023-06-22T10:23:08;23.00;82.70
26909;DHT22;14477;51.038;4.588;2023-06-22T10:25:34;22.90;84.10
26909;DHT22;14477;51.038;4.588;2023-06-22T10:28:00;22.80;85.40
26909;DHT22;14477;51.038;4.588;2023-06-22T10:30:25;22.70;86.50
26909;DHT22;14477;51.038;4.588;2023-06-22T10:32:51;22.60;87.20
26909;DHT22;14477;51.038;4.588;2023-06-22T10:35:17;22.50;88.10
26909;DHT22;14477;51.038;4.588;2023-06-22T10:37:44;22.50;89.10
26909;DHT22;14477;51.038;4.588;2023-06-22T10:40:11;22.40;89.80
26909;DHT22;14477;51.038;4.588;2023-06-22T10:42:37;22.40;90.10
26909;DHT22;14477;51.038;4.588;2023-06-22T10:45:03;22.30;90.50
26909;DHT22;14477;51.038;4.588;2023-06-22T10:47:28;22.30;90.90
26909;DHT22;14477;51.038;4.588;2023-06-22T10:49:54;22.20;91.20
26909;DHT22;14477;51.038;4.588;2023-06-22T10:52:20;22.30;91.50
26909;DHT22;14477;51.038;4.588;2023-06-22T10:54:45;22.20;91.80
26909;DHT22;14477;51.038;4.588;2023-06-22T10:57:11;22.30;92.10
26909;DHT22;14477;51.038;4.588;2023-06-22T10:59:37;22.20;92.30
26909;DHT22;14477;51.038;4.588;2023-06-22T11:02:02;22.20;92.50
26909;DHT22;14477;51.038;4.588;2023-06-22T11:04:28;22.20;92.60
26909;DHT22;14477;51.038;4.588;2023-06-22T11:06:54;22.20;92.80
26909;DHT22;14477;51.038;4.588;2023-06-22T11:09:21;22.20;93.00
26909;DHT22;14477;51.038;4.588;2023-06-22T11:11:48;22.20;93.10
26909;DHT22;14477;51.038;4.588;2023-06-22T11:14:14;22.10;93.30
26909;DHT22;14477;51.038;4.588;2023-06-22T11:16:40;22.10;93.40
26909;DHT22;14477;51.038;4.588;2023-06-22T11:19:06;22.00;93.40
26909;DHT22;14477;51.038;4.588;2023-06-22T11:21:32;22.00;93.60
26909;DHT22;14477;51.038;4.588;2023-06-22T11:23:58;21.90;93.80
26909;DHT22;14477;51.038;4.588;2023-06-22T11:26:25;21.90;93.90
26909;DHT22;14477;51.038;4.588;2023-06-22T11:28:53;21.80;93.90
26909;DHT22;14477;51.038;4.588;2023-06-22T11:31:18;21.80;94.00
26909;DHT22;14477;51.038;4.588;2023-06-22T11:33:44;21.70;94.10
26909;DHT22;14477;51.038;4.588;2023-06-22T11:36:11;21.60;94.30
26909;DHT22;14477;51.038;4.588;2023-06-22T11:38:37;21.50;94.50
26909;DHT22;14477;51.038;4.588;2023-06-22T11:41:06;21.50;94.60
26909;DHT22;14477;51.038;4.588;2023-06-22T11:43:32;21.40;94.80
26909;DHT22;14477;51.038;4.588;2023-06-22T11:45:57;21.40;95.00
26909;DHT22;14477;51.038;4.588;2023-06-22T11:48:26;21.40;95.20
26909;DHT22;14477;51.038;4.588;2023-06-22T11:50:52;21.30;95.30
26909;DHT22;14477;51.038;4.588;2023-06-22T11:53:17;21.30;95.50
26909;DHT22;14477;51.038;4.588;2023-06-22T11:55:44;21.20;95.60
26909;DHT22;14477;51.038;4.588;2023-06-22T11:58:09;21.30;95.80
26909;DHT22;14477;51.038;4.588;2023-06-22T12:00:35;21.30;96.00
26909;DHT22;14477;51.038;4.588;2023-06-22T12:03:01;21.20;96.00
26909;DHT22;14477;51.038;4.588;2023-06-22T12:05:26;21.20;96.20
26909;DHT22;14477;51.038;4.588;2023-06-22T12:07:55;21.30;96.50
26909;DHT22;14477;51.038;4.588;2023-06-22T12:10:22;21.20;96.50
26909;DHT22;14477;51.038;4.588;2023-06-22T12:12:48;21.30;96.70
26909;DHT22;14477;51.038;4.588;2023-06-22T12:15:14;21.20;96.80
26909;DHT22;14477;51.038;4.588;2023-06-22T12:17:40;21.30;97.00
26909;DHT22;14477;51.038;4.588;2023-06-22T12:20:07;21.30;96.90
26909;DHT22;14477;51.038;4.588;2023-06-22T12:22:33;21.30;97.30
26909;DHT22;14477;51.038;4.588;2023-06-22T12:24:59;21.30;97.10
26909;DHT22;14477;51.038;4.588;2023-06-22T12:27:25;21.30;97.30
26909;DHT22;14477;51.038;4.588;2023-06-22T12:29:51;21.30;97.40
26909;DHT22;14477;51.038;4.588;2023-06-22T12:32:17;21.30;97.60
26909;DHT22;14477;51.038;4.588;2023-06-22T12:34:43;21.40;97.60
26909;DHT22;14477;51.038;4.588;2023-06-22T12:37:09;21.40;97.60
26909;DHT22;14477;51.038;4.588;2023-06-22T12:39:35;21.30;97.70
26909;DHT22;14477;51.038;4.588;2023-06-22T12:42:01;21.40;97.80
26909;DHT22;14477;51.038;4.588;2023-06-22T12:44:27;21.40;98.00
26909;DHT22;14477;51.038;4.588;2023-06-22T12:46:52;21.40;98.00
26909;DHT22;14477;51.038;4.588;2023-06-22T12:49:18;21.50;98.10
26909;DHT22;14477;51.038;4.588;2023-06-22T12:51:45;21.50;98.10
26909;DHT22;14477;51.038;4.588;2023-06-22T12:54:11;21.50;97.90
26909;DHT22;14477;51.038;4.588;2023-06-22T12:56:37;21.50;98.00
26909;DHT22;14477;51.038;4.588;2023-06-22T12:59:04;21.50;98.00
26909;DHT22;14477;51.038;4.588;2023-06-22T13:01:30;21.60;98.00
26909;DHT22;14477;51.038;4.588;2023-06-22T13:04:00;21.50;98.00
26909;DHT22;14477;51.038;4.588;2023-06-22T13:06:26;21.60;98.00
26909;DHT22;14477;51.038;4.588;2023-06-22T13:08:52;21.50;98.00
26909;DHT22;14477;51.038;4.588;2023-06-22T13:11:17;21.60;98.00
26909;DHT22;14477;51.038;4.588;2023-06-22T13:13:45;21.60;98.00
26909;DHT22;14477;51.038;4.588;2023-06-22T13:16:11;21.50;98.00
26909;DHT22;14477;51.038;4.588;2023-06-22T13:18:37;21.50;98.00
26909;DHT22;14477;51.038;4.588;2023-06-22T13:21:03;21.50;98.00
26909;DHT22;14477;51.038;4.588;2023-06-22T13:23:29;21.50;98.10
26909;DHT22;14477;51.038;4.588;2023-06-22T13:25:55;21.50;98.10
26909;DHT22;14477;51.038;4.588;2023-06-22T13:28:21;21.50;98.10
26909;DHT22;14477;51.038;4.588;2023-06-22T13:30:47;21.50;98.10
26909;DHT22;14477;51.038;4.588;2023-06-22T13:33:14;21.50;98.40
26909;DHT22;14477;51.038;4.588;2023-06-22T13:35:39;21.50;98.10
26909;DHT22;14477;51.038;4.588;2023-06-22T13:38:08;21.50;98.20
26909;DHT22;14477;51.038;4.588;2023-06-22T13:40:35;21.50;98.20
26909;DHT22;14477;51.038;4.588;2023-06-22T13:43:00;21.40;98.30
26909;DHT22;14477;51.038;4.588;2023-06-22T13:45:26;21.50;98.30
26909;DHT22;14477;51.038;4.588;2023-06-22T13:47:52;21.50;98.40
26909;DHT22;14477;51.038;4.588;2023-06-22T13:50:19;21.50;98.50
26909;DHT22;14477;51.038;4.588;2023-06-22T13:52:44;21.40;98.60
26909;DHT22;14477;51.038;4.588;2023-06-22T13:55:10;21.50;98.60
26909;DHT22;14477;51.038;4.588;2023-06-22T13:57:36;21.50;98.70
26909;DHT22;14477;51.038;4.588;2023-06-22T14:00:03;21.50;98.70
26909;DHT22;14477;51.038;4.588;2023-06-22T14:02:30;21.50;98.70
26909;DHT22;14477;51.038;4.588;2023-06-22T14:04:56;21.50;98.90
26909;DHT22;14477;51.038;4.588;2023-06-22T14:07:22;21.50;98.90
26909;DHT22;14477;51.038;4.588;2023-06-22T14:09:50;21.50;99.00
26909;DHT22;14477;51.038;4.588;2023-06-22T14:12:16;21.60;99.10
26909;DHT22;14477;51.038;4.588;2023-06-22T14:14:43;21.50;99.10
26909;DHT22;14477;51.038;4.588;2023-06-22T14:17:09;21.60;99.10
26909;DHT22;14477;51.038;4.588;2023-06-22T14:19:35;21.60;99.20
26909;DHT22;14477;51.038;4.588;2023-06-22T14:22:01;21.60;99.20
26909;DHT22;14477;51.038;4.588;2023-06-22T14:24:27;21.60;99.20
26909;DHT22;14477;51.038;4.588;2023-06-22T14:26:54;21.60;99.20
26909;DHT22;14477;51.038;4.588;2023-06-22T14:29:20;21.60;99.10
26909;DHT22;14477;51.038;4.588;2023-06-22T14:31:46;21.60;99.10
26909;DHT22;14477;51.038;4.588;2023-06-22T14:34:12;21.60;99.10
26909;DHT22;14477;51.038;4.588;2023-06-22T14:36:38;21.60;99.20
26909;DHT22;14477;51.038;4.588;2023-06-22T14:39:04;21.60;99.30
26909;DHT22;14477;51.038;4.588;2023-06-22T14:41:33;21.60;99.30
26909;DHT22;14477;51.038;4.588;2023-06-22T14:43:58;21.60;99.30
26909;DHT22;14477;51.038;4.588;2023-06-22T14:46:24;21.60;99.40
26909;DHT22;14477;51.038;4.588;2023-06-22T14:48:50;21.70;99.50
26909;DHT22;14477;51.038;4.588;2023-06-22T14:51:16;21.70;99.60
26909;DHT22;14477;51.038;4.588;2023-06-22T14:53:43;21.70;99.60
26909;DHT22;14477;51.038;4.588;2023-06-22T14:56:09;21.70;99.70
26909;DHT22;14477;51.038;4.588;2023-06-22T14:58:35;21.60;99.70
26909;DHT22;14477;51.038;4.588;2023-06-22T15:01:04;21.70;99.80
26909;DHT22;14477;51.038;4.588;2023-06-22T15:03:35;21.80;99.90
26909;DHT22;14477;51.038;4.588;2023-06-22T15:06:02;21.80;99.90
26909;DHT22;14477;51.038;4.588;2023-06-22T15:08:28;21.80;99.90
26909;DHT22;14477;51.038;4.588;2023-06-22T15:10:54;21.80;99.90
26909;DHT22;14477;51.038;4.588;2023-06-22T15:13:20;21.90;99.90
26909;DHT22;14477;51.038;4.588;2023-06-22T15:15:47;21.80;99.90
26909;DHT22;14477;51.038;4.588;2023-06-22T15:18:14;21.90;99.90
26909;DHT22;14477;51.038;4.588;2023-06-22T15:20:39;21.90;99.90
26909;DHT22;14477;51.038;4.588;2023-06-22T15:23:06;22.00;99.90
26909;DHT22;14477;51.038;4.588;2023-06-22T15:25:32;22.00;99.90
26909;DHT22;14477;51.038;4.588;2023-06-22T15:27:57;22.00;99.90
26909;DHT22;14477;51.038;4.588;2023-06-22T15:30:23;22.00;99.90